sensor_id;sensor_type;location;lat;lon;timestamp;temperature;humidity
11107;DHT22;5607;48.302;14.294;2024-03-08T00:00:20;6.10;99.90
11107;DHT22;5607;48.302;14.294;2024-03-08T00:03:06;6.10;99.90
11107;DHT22;5607;48.302;14.294;2024-03-08T00:05:53;6.20;99.90
11107;DHT22;5607;48.302;14.294;2024-03-08T00:08:39;6.20;99.90
11107;DHT22;5607;48.302;14.294;2024-03-08T00:11:25;6.10;99.90
11107;DHT22;5607;48.302;14.294;2024-03-08T00:14:12;6.00;99.90
11107;DHT22;5607;48.302;14.294;2024-03-08T00:16:58;6.00;99.90
11107;DHT22;5607;48.302;14.294;2024-03-08T00:19:45;6.00;99.90
11107;DHT22;5607;48.302;14.294;2024-03-08T00:22:31;5.90;99.90
11107;DHT22;5607;48.302;14.294;2024-03-08T00:25:17;5.90;99.90
11107;DHT22;5607;48.302;14.294;2024-03-08T00:28:04;5.90;99.90
11107;DHT22;5607;48.302;14.294;2024-03-08T00:30:52;5.80;99.90
11107;DHT22;5607;48.302;14.294;2024-03-08T00:33:38;5.80;99.90
11107;DHT22;5607;48.302;14.294;2024-03-08T00:36:25;5.70;99.90
11107;DHT22;5607;48.302;14.294;2024-03-08T00:39:12;5.70;99.90
11107;DHT22;5607;48.302;14.294;2024-03-08T00:41:59;5.70;99.90
11107;DHT22;5607;48.302;14.294;2024-03-08T00:44:45;5.60;99.90
11107;DHT22;5607;48.302;14.294;2024-03-08T00:47:32;5.40;99.90
11107;DHT22;5607;48.302;14.294;2024-03-08T00:50:18;5.30;99.90
11107;DHT22;5607;48.302;14.294;2024-03-08T00:53:05;5.30;99.90
11107;DHT22;5607;48.302;14.294;2024-03-08T00:55:51;5.20;99.90
11107;DHT22;5607;48.302;14.294;2024-03-08T00:58:38;5.30;99.90
11107;DHT22;5607;48.302;14.294;2024-03-08T01:01:24;5.30;99.90
11107;DHT22;5607;48.302;14.294;2024-03-08T01:04:10;5.30;99.90
11107;DHT22;5607;48.302;14.294;2024-03-08T01:06:58;5.30;99.90
11107;DHT22;5607;48.302;14.294;2024-03-08T01:09:45;5.40;99.90
11107;DHT22;5607;48.302;14.294;2024-03-08T01:12:31;5.30;99.90
11107;DHT22;5607;48.302;14.294;2024-03-08T01:15:17;5.30;99.90
11107;DHT22;5607;48.302;14.294;2024-03-08T01:18:04;5.30;99.90
11107;DHT22;5607;48.302;14.294;2024-03-08T01:20:51;5.20;99.90
11107;DHT22;5607;48.302;14.294;2024-03-08T01:23:37;5.20;99.90
11107;DHT22;5607;48.302;14.294;2024-03-08T01:26:23;5.20;99.90
11107;DHT22;5607;48.302;14.294;2024-03-08T01:29:10;5.20;99.90
11107;DHT22;5607;48.302;14.294;2024-03-08T01:31:56;5.10;99.90
11107;DHT22;5607;48.302;14.294;2024-03-08T01:34:42;5.10;99.90
11107;DHT22;5607;48.302;14.294;2024-03-08T01:37:30;5.10;99.90
11107;DHT22;5607;48.302;14.294;2024-03-08T01:40:19;5.10;99.90
11107;DHT22;5607;48.302;14.294;2024-03-08T01:46:04;4.90;99.90
11107;DHT22;5607;48.302;14.294;2024-03-08T01:48:51;4.90;99.90
11107;DHT22;5607;48.302;14.294;2024-03-08T01:51:38;5.00;99.90
11107;DHT22;5607;48.302;14.294;2024-03-08T01:54:26;5.10;99.90
11107;DHT22;5607;48.302;14.294;2024-03-08T01:57:12;5.10;99.90
11107;DHT22;5607;48.302;14.294;2024-03-08T02:00:00;5.10;99.90
11107;DHT22;5607;48.302;14.294;2024-03-08T02:02:49;5.10;99.90
11107;DHT22;5607;48.302;14.294;2024-03-08T02:05:37;5.00;99.90
11107;DHT22;5607;48.302;14.294;2024-03-08T02:08:24;5.00;99.90
11107;DHT22;5607;48.302;14.294;2024-03-08T02:11:10;5.00;99.90
11107;DHT22;5607;48.302;14.294;2024-03-08T02:13:57;4.90;99.90
11107;DHT22;5607;48.302;14.294;2024-03-08T02:16:44;5.00;99.90
11107;DHT22;5607;48.302;14.294;2024-03-08T02:19:30;5.00;99.90
11107;DHT22;5607;48.302;14.294;2024-03-08T02:22:16;5.00;99.90
11107;DHT22;5607;48.302;14.294;2024-03-08T02:25:03;4.90;99.90
11107;DHT22;5607;48.302;14.294;2024-03-08T02:27:49;4.80;99.90
11107;DHT22;5607;48.302;14.294;2024-03-08T02:30:37;4.80;99.90
11107;DHT22;5607;48.302;14.294;2024-03-08T02:33:24;4.80;99.90
11107;DHT22;5607;48.302;14.294;2024-03-08T02:36:11;4.90;99.90
11107;DHT22;5607;48.302;14.294;2024-03-08T02:38:58;4.80;99.90
11107;DHT22;5607;48.302;14.294;2024-03-08T02:41:44;4.80;99.90
11107;DHT22;5607;48.302;14.294;2024-03-08T02:44:31;4.70;99.90
11107;DHT22;5607;48.302;14.294;2024-03-08T02:47:17;4.60;99.90
11107;DHT22;5607;48.302;14.294;2024-03-08T02:50:03;4.50;99.90
11107;DHT22;5607;48.302;14.294;2024-03-08T02:52:50;4.40;99.90
11107;DHT22;5607;48.302;14.294;2024-03-08T02:55:37;4.30;99.90
11107;DHT22;5607;48.302;14.294;2024-03-08T02:58:23;4.40;99.90
11107;DHT22;5607;48.302;14.294;2024-03-08T03:01:09;4.30;99.90
11107;DHT22;5607;48.302;14.294;2024-03-08T03:03:58;4.30;99.90
11107;DHT22;5607;48.302;14.294;2024-03-08T03:06:44;4.20;99.90
11107;DHT22;5607;48.302;14.294;2024-03-08T03:09:33;4.20;99.90
11107;DHT22;5607;48.302;14.294;2024-03-08T03:12:19;4.20;99.90
11107;DHT22;5607;48.302;14.294;2024-03-08T03:15:05;4.10;99.90
11107;DHT22;5607;48.302;14.294;2024-03-08T03:17:52;4.10;99.90
11107;DHT22;5607;48.302;14.294;2024-03-08T03:20:39;4.00;99.90
11107;DHT22;5607;48.302;14.294;2024-03-08T03:23:28;4.00;99.90
11107;DHT22;5607;48.302;14.294;2024-03-08T03:26:19;3.90;99.90
11107;DHT22;5607;48.302;14.294;2024-03-08T03:29:05;3.90;99.90
11107;DHT22;5607;48.302;14.294;2024-03-08T03:31:56;3.90;99.90
11107;DHT22;5607;48.302;14.294;2024-03-08T03:34:42;3.90;99.90
11107;DHT22;5607;48.302;14.294;2024-03-08T03:37:31;3.90;99.90
11107;DHT22;5607;48.302;14.294;2024-03-08T03:40:17;3.90;99.90
11107;DHT22;5607;48.302;14.294;2024-03-08T03:43:05;4.00;99.90
11107;DHT22;5607;48.302;14.294;2024-03-08T03:45:51;4.20;99.90
11107;DHT22;5607;48.302;14.294;2024-03-08T03:48:38;4.30;99.90
11107;DHT22;5607;48.302;14.294;2024-03-08T03:51:24;4.30;99.90
11107;DHT22;5607;48.302;14.294;2024-03-08T03:54:12;4.40;99.90
11107;DHT22;5607;48.302;14.294;2024-03-08T03:56:58;4.30;99.90
11107;DHT22;5607;48.302;14.294;2024-03-08T03:59:46;4.30;99.90
11107;DHT22;5607;48.302;14.294;2024-03-08T04:02:33;4.20;99.90
11107;DHT22;5607;48.302;14.294;2024-03-08T04:05:20;4.10;99.90
11107;DHT22;5607;48.302;14.294;2024-03-08T04:08:06;4.00;99.90
11107;DHT22;5607;48.302;14.294;2024-03-08T04:10:52;4.00;99.90
11107;DHT22;5607;48.302;14.294;2024-03-08T04:13:38;3.90;99.90
11107;DHT22;5607;48.302;14.294;2024-03-08T04:16:25;3.90;99.90
11107;DHT22;5607;48.302;14.294;2024-03-08T04:19:11;3.90;99.90
11107;DHT22;5607;48.302;14.294;2024-03-08T04:21:58;3.90;99.90
11107;DHT22;5607;48.302;14.294;2024-03-08T04:24:44;3.90;99.90
11107;DHT22;5607;48.302;14.294;2024-03-08T04:27:32;3.80;99.90
11107;DHT22;5607;48.302;14.294;2024-03-08T04:30:18;3.70;99.90
11107;DHT22;5607;48.302;14.294;2024-03-08T04:33:07;3.70;99.90
11107;DHT22;5607;48.302;14.294;2024-03-08T04:35:54;3.80;99.90
11107;DHT22;5607;48.302;14.294;2024-03-08T04:38:40;3.90;99.90
11107;DHT22;5607;48.302;14.294;2024-03-08T04:41:27;4.00;99.90
11107;DHT22;5607;48.302;14.294;2024-03-08T04:44:14;4.10;99.90
11107;DHT22;5607;48.302;14.294;2024-03-08T04:47:00;4.20;99.90
11107;DHT22;5607;48.302;14.294;2024-03-08T04:49:47;4.30;99.90
11107;DHT22;5607;48.302;14.294;2024-03-08T04:52:33;4.40;99.90
11107;DHT22;5607;48.302;14.294;2024-03-08T04:55:19;4.30;99.90
11107;DHT22;5607;48.302;14.294;2024-03-08T04:58:07;4.30;99.90
11107;DHT22;5607;48.302;14.294;2024-03-08T05:00:53;4.50;99.90
11107;DHT22;5607;48.302;14.294;2024-03-08T05:03:40;4.50;99.90
11107;DHT22;5607;48.302;14.294;2024-03-08T05:06:26;4.60;99.90
11107;DHT22;5607;48.302;14.294;2024-03-08T05:09:12;4.60;99.90
11107;DHT22;5607;48.302;14.294;2024-03-08T05:12:02;4.60;99.90
11107;DHT22;5607;48.302;14.294;2024-03-08T05:14:48;4.60;99.90
11107;DHT22;5607;48.302;14.294;2024-03-08T05:17:35;4.60;99.90
11107;DHT22;5607;48.302;14.294;2024-03-08T05:20:23;4.50;99.90
11107;DHT22;5607;48.302;14.294;2024-03-08T05:23:09;4.70;99.90
11107;DHT22;5607;48.302;14.294;2024-03-08T05:25:56;4.70;99.90
11107;DHT22;5607;48.302;14.294;2024-03-08T05:28:42;4.70;99.90
11107;DHT22;5607;48.302;14.294;2024-03-08T05:31:30;4.70;99.90
11107;DHT22;5607;48.302;14.294;2024-03-08T05:34:17;4.80;99.90
11107;DHT22;5607;48.302;14.294;2024-03-08T05:37:03;4.80;99.90
11107;DHT22;5607;48.302;14.294;2024-03-08T05:39:49;4.80;99.90
11107;DHT22;5607;48.302;14.294;2024-03-08T05:42:36;4.70;99.90
11107;DHT22;5607;48.302;14.294;2024-03-08T05:45:22;4.70;99.90
11107;DHT22;5607;48.302;14.294;2024-03-08T05:48:09;4.60;99.90
11107;DHT22;5607;48.302;14.294;2024-03-08T05:50:56;4.60;99.90
11107;DHT22;5607;48.302;14.294;2024-03-08T05:53:43;4.60;99.90
11107;DHT22;5607;48.302;14.294;2024-03-08T05:56:29;4.70;99.90
11107;DHT22;5607;48.302;14.294;2024-03-08T05:59:15;4.80;99.90
11107;DHT22;5607;48.302;14.294;2024-03-08T06:02:03;4.70;99.90
11107;DHT22;5607;48.302;14.294;2024-03-08T06:04:50;4.80;99.90
11107;DHT22;5607;48.302;14.294;2024-03-08T06:07:37;4.80;99.90
11107;DHT22;5607;48.302;14.294;2024-03-08T06:10:26;4.80;99.90
11107;DHT22;5607;48.302;14.294;2024-03-08T06:13:12;4.70;99.90
11107;DHT22;5607;48.302;14.294;2024-03-08T06:15:59;4.60;99.90
11107;DHT22;5607;48.302;14.294;2024-03-08T06:18:46;4.70;99.90
11107;DHT22;5607;48.302;14.294;2024-03-08T06:21:32;4.70;99.90
11107;DHT22;5607;48.302;14.294;2024-03-08T06:24:19;4.80;99.90
11107;DHT22;5607;48.302;14.294;2024-03-08T06:27:05;4.80;99.90
11107;DHT22;5607;48.302;14.294;2024-03-08T06:29:51;4.80;99.90
11107;DHT22;5607;48.302;14.294;2024-03-08T06:32:38;4.80;99.90
11107;DHT22;5607;48.302;14.294;2024-03-08T06:35:24;4.80;99.90
11107;DHT22;5607;48.302;14.294;2024-03-08T06:38:11;4.90;99.90
11107;DHT22;5607;48.302;14.294;2024-03-08T06:40:57;4.90;99.90
11107;DHT22;5607;48.302;14.294;2024-03-08T06:43:46;4.80;99.90
11107;DHT22;5607;48.302;14.294;2024-03-08T06:46:32;4.80;99.90
11107;DHT22;5607;48.302;14.294;2024-03-08T06:49:19;4.90;99.90
11107;DHT22;5607;48.302;14.294;2024-03-08T06:52:06;5.00;99.90
11107;DHT22;5607;48.302;14.294;2024-03-08T06:54:54;5.10;99.90
11107;DHT22;5607;48.302;14.294;2024-03-08T06:57:41;5.20;99.90
11107;DHT22;5607;48.302;14.294;2024-03-08T07:00:27;5.20;99.90
11107;DHT22;5607;48.302;14.294;2024-03-08T07:03:16;5.40;99.90
11107;DHT22;5607;48.302;14.294;2024-03-08T07:06:03;5.40;99.90
11107;DHT22;5607;48.302;14.294;2024-03-08T07:08:53;5.40;99.90
11107;DHT22;5607;48.302;14.294;2024-03-08T07:11:39;5.40;99.90
11107;DHT22;5607;48.302;14.294;2024-03-08T07:14:26;5.40;99.90
11107;DHT22;5607;48.302;14.294;2024-03-08T07:17:13;5.50;99.90
11107;DHT22;5607;48.302;14.294;2024-03-08T07:20:00;5.60;99.90
11107;DHT22;5607;48.302;14.294;2024-03-08T07:22:48;5.60;99.90
11107;DHT22;5607;48.302;14.294;2024-03-08T07:25:36;5.60;99.90
11107;DHT22;5607;48.302;14.294;2024-03-08T07:28:25;5.70;99.90
11107;DHT22;5607;48.302;14.294;2024-03-08T07:31:11;5.70;99.90
11107;DHT22;5607;48.302;14.294;2024-03-08T07:33:57;5.70;99.90
11107;DHT22;5607;48.302;14.294;2024-03-08T07:36:44;5.80;99.90
11107;DHT22;5607;48.302;14.294;2024-03-08T07:39:31;5.90;99.90
11107;DHT22;5607;48.302;14.294;2024-03-08T07:42:20;6.00;99.90
11107;DHT22;5607;48.302;14.294;2024-03-08T07:45:07;6.10;99.90
11107;DHT22;5607;48.302;14.294;2024-03-08T07:47:54;5.90;99.90
11107;DHT22;5607;48.302;14.294;2024-03-08T07:50:41;6.20;99.90
11107;DHT22;5607;48.302;14.294;2024-03-08T07:53:28;6.30;99.90
11107;DHT22;5607;48.302;14.294;2024-03-08T07:56:14;6.40;99.90
11107;DHT22;5607;48.302;14.294;2024-03-08T07:59:02;6.60;99.90
11107;DHT22;5607;48.302;14.294;2024-03-08T08:01:50;6.70;99.90
11107;DHT22;5607;48.302;14.294;2024-03-08T08:04:36;6.80;99.90
11107;DHT22;5607;48.302;14.294;2024-03-08T08:07:23;6.90;99.90
11107;DHT22;5607;48.302;14.294;2024-03-08T08:10:09;7.10;99.90
11107;DHT22;5607;48.302;14.294;2024-03-08T08:13:02;7.00;99.90
11107;DHT22;5607;48.302;14.294;2024-03-08T08:15:50;7.20;99.90
11107;DHT22;5607;48.302;14.294;2024-03-08T08:18:36;7.20;99.90
11107;DHT22;5607;48.302;14.294;2024-03-08T08:21:23;7.20;99.90
11107;DHT22;5607;48.302;14.294;2024-03-08T08:24:12;7.30;99.90
11107;DHT22;5607;48.302;14.294;2024-03-08T08:26:58;7.50;99.90
11107;DHT22;5607;48.302;14.294;2024-03-08T08:29:45;7.70;99.90
11107;DHT22;5607;48.302;14.294;2024-03-08T08:32:32;7.90;99.90
11107;DHT22;5607;48.302;14.294;2024-03-08T08:35:18;8.10;99.90
11107;DHT22;5607;48.302;14.294;2024-03-08T08:38:05;8.30;99.90
11107;DHT22;5607;48.302;14.294;2024-03-08T08:40:53;8.40;99.90
11107;DHT22;5607;48.302;14.294;2024-03-08T08:43:39;8.50;99.90
11107;DHT22;5607;48.302;14.294;2024-03-08T08:46:29;8.60;99.90
11107;DHT22;5607;48.302;14.294;2024-03-08T08:49:16;8.40;99.90
11107;DHT22;5607;48.302;14.294;2024-03-08T08:52:06;8.40;99.90
11107;DHT22;5607;48.302;14.294;2024-03-08T08:54:53;8.40;99.90
11107;DHT22;5607;48.302;14.294;2024-03-08T08:57:42;8.70;99.90
11107;DHT22;5607;48.302;14.294;2024-03-08T09:00:28;8.60;99.90
11107;DHT22;5607;48.302;14.294;2024-03-08T09:03:17;8.80;99.90
11107;DHT22;5607;48.302;14.294;2024-03-08T09:06:03;9.00;99.90
11107;DHT22;5607;48.302;14.294;2024-03-08T09:08:50;9.10;99.90
11107;DHT22;5607;48.302;14.294;2024-03-08T09:11:37;9.20;99.90
11107;DHT22;5607;48.302;14.294;2024-03-08T09:14:27;9.40;99.40
11107;DHT22;5607;48.302;14.294;2024-03-08T09:17:13;9.50;85.40
11107;DHT22;5607;48.302;14.294;2024-03-08T09:20:06;9.60;73.20
11107;DHT22;5607;48.302;14.294;2024-03-08T09:22:54;9.60;70.40
11107;DHT22;5607;48.302;14.294;2024-03-08T09:25:41;9.60;65.30
11107;DHT22;5607;48.302;14.294;2024-03-08T09:28:27;9.40;60.90
11107;DHT22;5607;48.302;14.294;2024-03-08T09:31:13;9.30;71.80
11107;DHT22;5607;48.302;14.294;2024-03-08T09:33:59;9.10;56.80
11107;DHT22;5607;48.302;14.294;2024-03-08T09:36:46;9.10;51.60
11107;DHT22;5607;48.302;14.294;2024-03-08T09:39:32;9.10;49.90
11107;DHT22;5607;48.302;14.294;2024-03-08T09:42:19;9.00;57.60
11107;DHT22;5607;48.302;14.294;2024-03-08T09:45:10;9.10;77.20
11107;DHT22;5607;48.302;14.294;2024-03-08T09:51:27;8.70;72.50
11107;DHT22;5607;48.302;14.294;2024-03-08T09:54:14;8.80;55.50
11107;DHT22;5607;48.302;14.294;2024-03-08T09:57:03;8.90;66.20
11107;DHT22;5607;48.302;14.294;2024-03-08T09:59:50;9.10;59.60
11107;DHT22;5607;48.302;14.294;2024-03-08T10:02:37;9.20;57.10
11107;DHT22;5607;48.302;14.294;2024-03-08T10:05:23;9.00;52.20
11107;DHT22;5607;48.302;14.294;2024-03-08T10:08:09;8.80;53.40
11107;DHT22;5607;48.302;14.294;2024-03-08T10:10:56;9.00;61.50
11107;DHT22;5607;48.302;14.294;2024-03-08T10:13:47;9.10;71.70
11107;DHT22;5607;48.302;14.294;2024-03-08T10:16:33;9.10;77.10
11107;DHT22;5607;48.302;14.294;2024-03-08T10:19:21;9.10;64.00
11107;DHT22;5607;48.302;14.294;2024-03-08T10:22:07;9.20;57.30
11107;DHT22;5607;48.302;14.294;2024-03-08T10:25:00;9.20;50.10
11107;DHT22;5607;48.302;14.294;2024-03-08T10:27:46;9.20;50.70
11107;DHT22;5607;48.302;14.294;2024-03-08T10:30:32;9.30;50.10
11107;DHT22;5607;48.302;14.294;2024-03-08T10:33:19;9.30;54.50
11107;DHT22;5607;48.302;14.294;2024-03-08T10:36:08;9.40;54.30
11107;DHT22;5607;48.302;14.294;2024-03-08T10:38:57;9.50;51.60
11107;DHT22;5607;48.302;14.294;2024-03-08T10:41:46;9.60;51.80
11107;DHT22;5607;48.302;14.294;2024-03-08T10:44:43;9.60;51.20
11107;DHT22;5607;48.302;14.294;2024-03-08T10:47:32;9.70;50.50
11107;DHT22;5607;48.302;14.294;2024-03-08T10:50:21;9.80;49.90
11107;DHT22;5607;48.302;14.294;2024-03-08T10:53:08;9.90;50.00
11107;DHT22;5607;48.302;14.294;2024-03-08T10:55:57;10.00;51.30
11107;DHT22;5607;48.302;14.294;2024-03-08T10:58:43;10.10;49.80
11107;DHT22;5607;48.302;14.294;2024-03-08T11:01:30;10.10;45.90
11107;DHT22;5607;48.302;14.294;2024-03-08T11:04:17;10.10;47.60
11107;DHT22;5607;48.302;14.294;2024-03-08T11:07:08;10.10;49.90
11107;DHT22;5607;48.302;14.294;2024-03-08T11:10:03;10.20;42.90
11107;DHT22;5607;48.302;14.294;2024-03-08T11:12:56;10.10;41.00
11107;DHT22;5607;48.302;14.294;2024-03-08T11:15:46;10.20;45.50
11107;DHT22;5607;48.302;14.294;2024-03-08T11:18:33;10.30;49.80
11107;DHT22;5607;48.302;14.294;2024-03-08T11:21:23;10.30;48.80
11107;DHT22;5607;48.302;14.294;2024-03-08T11:24:12;10.30;49.50
11107;DHT22;5607;48.302;14.294;2024-03-08T11:26:59;10.40;50.10
11107;DHT22;5607;48.302;14.294;2024-03-08T11:29:58;10.40;48.40
11107;DHT22;5607;48.302;14.294;2024-03-08T11:32:45;10.50;50.20
11107;DHT22;5607;48.302;14.294;2024-03-08T11:35:32;10.50;47.80
11107;DHT22;5607;48.302;14.294;2024-03-08T11:38:19;10.50;48.00
11107;DHT22;5607;48.302;14.294;2024-03-08T11:41:06;10.60;49.20
11107;DHT22;5607;48.302;14.294;2024-03-08T11:44:02;10.80;46.60
11107;DHT22;5607;48.302;14.294;2024-03-08T11:46:53;10.80;50.60
11107;DHT22;5607;48.302;14.294;2024-03-08T11:49:40;10.90;51.40
11107;DHT22;5607;48.302;14.294;2024-03-08T11:52:30;11.10;47.70
11107;DHT22;5607;48.302;14.294;2024-03-08T11:55:16;11.10;48.50
11107;DHT22;5607;48.302;14.294;2024-03-08T11:58:05;11.20;39.10
11107;DHT22;5607;48.302;14.294;2024-03-08T12:01:02;11.30;44.00
11107;DHT22;5607;48.302;14.294;2024-03-08T12:03:52;11.20;49.60
11107;DHT22;5607;48.302;14.294;2024-03-08T12:06:39;11.20;49.30
11107;DHT22;5607;48.302;14.294;2024-03-08T12:09:25;11.40;50.60
11107;DHT22;5607;48.302;14.294;2024-03-08T12:12:11;11.50;45.10
11107;DHT22;5607;48.302;14.294;2024-03-08T12:14:58;11.60;45.60
11107;DHT22;5607;48.302;14.294;2024-03-08T12:17:44;11.70;42.30
11107;DHT22;5607;48.302;14.294;2024-03-08T12:20:34;11.80;33.80
11107;DHT22;5607;48.302;14.294;2024-03-08T12:23:20;11.90;47.70
11107;DHT22;5607;48.302;14.294;2024-03-08T12:26:16;12.00;37.10
11107;DHT22;5607;48.302;14.294;2024-03-08T12:29:19;12.00;37.10
11107;DHT22;5607;48.302;14.294;2024-03-08T12:32:08;12.10;48.70
11107;DHT22;5607;48.302;14.294;2024-03-08T12:34:57;12.20;37.00
11107;DHT22;5607;48.302;14.294;2024-03-08T12:37:43;12.30;34.40
11107;DHT22;5607;48.302;14.294;2024-03-08T12:40:30;12.10;28.70
11107;DHT22;5607;48.302;14.294;2024-03-08T12:43:27;11.90;44.60
11107;DHT22;5607;48.302;14.294;2024-03-08T12:46:17;11.70;44.80
11107;DHT22;5607;48.302;14.294;2024-03-08T12:49:09;11.70;50.00
11107;DHT22;5607;48.302;14.294;2024-03-08T12:51:56;11.90;46.90
11107;DHT22;5607;48.302;14.294;2024-03-08T12:54:42;12.00;47.90
11107;DHT22;5607;48.302;14.294;2024-03-08T12:57:29;12.20;33.80
11107;DHT22;5607;48.302;14.294;2024-03-08T13:00:15;12.30;38.20
11107;DHT22;5607;48.302;14.294;2024-03-08T13:03:05;12.30;35.50
11107;DHT22;5607;48.302;14.294;2024-03-08T13:05:52;12.30;42.90
11107;DHT22;5607;48.302;14.294;2024-03-08T13:08:38;12.40;39.90
11107;DHT22;5607;48.302;14.294;2024-03-08T13:11:25;12.60;43.50
11107;DHT22;5607;48.302;14.294;2024-03-08T13:14:11;12.50;44.90
11107;DHT22;5607;48.302;14.294;2024-03-08T13:16:58;12.70;32.00
11107;DHT22;5607;48.302;14.294;2024-03-08T13:19:45;12.60;32.60
11107;DHT22;5607;48.302;14.294;2024-03-08T13:22:31;12.60;37.30
11107;DHT22;5607;48.302;14.294;2024-03-08T13:25:17;12.50;33.00
11107;DHT22;5607;48.302;14.294;2024-03-08T13:28:06;12.50;34.50
11107;DHT22;5607;48.302;14.294;2024-03-08T13:30:53;12.60;30.10
11107;DHT22;5607;48.302;14.294;2024-03-08T13:33:39;12.50;26.60
11107;DHT22;5607;48.302;14.294;2024-03-08T13:36:25;12.70;31.60
11107;DHT22;5607;48.302;14.294;2024-03-08T13:39:15;12.70;34.40
11107;DHT22;5607;48.302;14.294;2024-03-08T13:42:01;12.70;30.80
11107;DHT22;5607;48.302;14.294;2024-03-08T13:44:48;12.60;28.00
11107;DHT22;5607;48.302;14.294;2024-03-08T13:47:34;12.60;33.90
11107;DHT22;5607;48.302;14.294;2024-03-08T13:50:21;12.90;32.70
11107;DHT22;5607;48.302;14.294;2024-03-08T13:53:08;12.90;34.00
11107;DHT22;5607;48.302;14.294;2024-03-08T13:55:56;12.90;37.20
11107;DHT22;5607;48.302;14.294;2024-03-08T13:58:43;12.90;36.30
11107;DHT22;5607;48.302;14.294;2024-03-08T14:01:31;13.00;30.10
11107;DHT22;5607;48.302;14.294;2024-03-08T14:04:17;13.00;26.10
11107;DHT22;5607;48.302;14.294;2024-03-08T14:07:03;13.00;24.70
11107;DHT22;5607;48.302;14.294;2024-03-08T14:09:50;12.90;23.80
11107;DHT22;5607;48.302;14.294;2024-03-08T14:12:38;12.90;31.30
11107;DHT22;5607;48.302;14.294;2024-03-08T14:15:25;12.80;35.80
11107;DHT22;5607;48.302;14.294;2024-03-08T14:18:11;12.50;33.60
11107;DHT22;5607;48.302;14.294;2024-03-08T14:20:59;12.60;40.60
11107;DHT22;5607;48.302;14.294;2024-03-08T14:23:45;12.60;28.00
11107;DHT22;5607;48.302;14.294;2024-03-08T14:26:31;12.60;33.60
11107;DHT22;5607;48.302;14.294;2024-03-08T14:29:17;12.60;29.50
11107;DHT22;5607;48.302;14.294;2024-03-08T14:32:07;12.50;37.60
11107;DHT22;5607;48.302;14.294;2024-03-08T14:34:54;12.40;37.20
11107;DHT22;5607;48.302;14.294;2024-03-08T14:37:41;12.30;42.00
11107;DHT22;5607;48.302;14.294;2024-03-08T14:40:29;12.10;46.50
11107;DHT22;5607;48.302;14.294;2024-03-08T14:43:16;12.00;39.00
11107;DHT22;5607;48.302;14.294;2024-03-08T14:46:05;11.80;41.00
11107;DHT22;5607;48.302;14.294;2024-03-08T14:48:53;11.70;50.00
11107;DHT22;5607;48.302;14.294;2024-03-08T14:51:39;11.60;46.30
11107;DHT22;5607;48.302;14.294;2024-03-08T14:54:27;11.60;49.30
11107;DHT22;5607;48.302;14.294;2024-03-08T14:57:13;11.50;49.80
11107;DHT22;5607;48.302;14.294;2024-03-08T14:59:59;11.40;40.50
11107;DHT22;5607;48.302;14.294;2024-03-08T15:02:53;11.40;49.60
11107;DHT22;5607;48.302;14.294;2024-03-08T15:05:40;11.50;51.90
11107;DHT22;5607;48.302;14.294;2024-03-08T15:08:31;11.50;50.50
11107;DHT22;5607;48.302;14.294;2024-03-08T15:11:18;11.50;53.00
11107;DHT22;5607;48.302;14.294;2024-03-08T15:14:07;11.60;50.20
11107;DHT22;5607;48.302;14.294;2024-03-08T15:16:56;11.50;49.80
11107;DHT22;5607;48.302;14.294;2024-03-08T15:19:42;11.40;51.50
11107;DHT22;5607;48.302;14.294;2024-03-08T15:22:30;11.30;41.00
11107;DHT22;5607;48.302;14.294;2024-03-08T15:25:16;11.20;51.60
11107;DHT22;5607;48.302;14.294;2024-03-08T15:28:06;11.20;49.60
11107;DHT22;5607;48.302;14.294;2024-03-08T15:30:59;11.20;51.70
11107;DHT22;5607;48.302;14.294;2024-03-08T15:33:51;11.10;52.40
11107;DHT22;5607;48.302;14.294;2024-03-08T15:36:52;11.10;53.70
11107;DHT22;5607;48.302;14.294;2024-03-08T15:39:39;11.00;54.20
11107;DHT22;5607;48.302;14.294;2024-03-08T15:42:25;11.00;55.30
11107;DHT22;5607;48.302;14.294;2024-03-08T15:45:12;11.00;50.20
11107;DHT22;5607;48.302;14.294;2024-03-08T15:47:58;11.00;55.90
11107;DHT22;5607;48.302;14.294;2024-03-08T15:50:45;11.00;57.40
11107;DHT22;5607;48.302;14.294;2024-03-08T15:56:55;10.80;52.90
11107;DHT22;5607;48.302;14.294;2024-03-08T15:59:43;10.80;52.00
11107;DHT22;5607;48.302;14.294;2024-03-08T16:02:31;10.60;50.60
11107;DHT22;5607;48.302;14.294;2024-03-08T16:05:19;10.50;50.30
11107;DHT22;5607;48.302;14.294;2024-03-08T16:08:05;10.40;52.80
11107;DHT22;5607;48.302;14.294;2024-03-08T16:10:54;10.30;54.30
11107;DHT22;5607;48.302;14.294;2024-03-08T16:13:41;10.30;49.80
11107;DHT22;5607;48.302;14.294;2024-03-08T16:16:28;10.30;67.80
11107;DHT22;5607;48.302;14.294;2024-03-08T16:19:16;10.30;53.20
11107;DHT22;5607;48.302;14.294;2024-03-08T16:22:02;10.20;55.80
11107;DHT22;5607;48.302;14.294;2024-03-08T16:24:50;10.20;56.00
11107;DHT22;5607;48.302;14.294;2024-03-08T16:27:39;10.20;50.40
11107;DHT22;5607;48.302;14.294;2024-03-08T16:30:25;10.20;50.20
11107;DHT22;5607;48.302;14.294;2024-03-08T16:33:13;10.10;57.80
11107;DHT22;5607;48.302;14.294;2024-03-08T16:36:00;10.10;50.70
11107;DHT22;5607;48.302;14.294;2024-03-08T16:38:48;9.90;55.50
11107;DHT22;5607;48.302;14.294;2024-03-08T16:41:35;9.90;62.90
11107;DHT22;5607;48.302;14.294;2024-03-08T16:44:21;9.80;52.50
11107;DHT22;5607;48.302;14.294;2024-03-08T16:47:10;9.80;52.10
11107;DHT22;5607;48.302;14.294;2024-03-08T16:49:57;9.70;51.80
11107;DHT22;5607;48.302;14.294;2024-03-08T16:52:44;9.70;58.40
11107;DHT22;5607;48.302;14.294;2024-03-08T16:55:30;9.70;67.70
11107;DHT22;5607;48.302;14.294;2024-03-08T16:58:17;9.60;57.90
11107;DHT22;5607;48.302;14.294;2024-03-08T17:01:04;9.60;53.60
11107;DHT22;5607;48.302;14.294;2024-03-08T17:03:52;9.50;59.50
11107;DHT22;5607;48.302;14.294;2024-03-08T17:06:38;9.50;68.50
11107;DHT22;5607;48.302;14.294;2024-03-08T17:09:24;9.50;54.80
11107;DHT22;5607;48.302;14.294;2024-03-08T17:12:13;9.30;65.80
11107;DHT22;5607;48.302;14.294;2024-03-08T17:15:04;9.30;77.20
11107;DHT22;5607;48.302;14.294;2024-03-08T17:17:52;9.30;51.80
11107;DHT22;5607;48.302;14.294;2024-03-08T17:20:40;9.30;99.90
11107;DHT22;5607;48.302;14.294;2024-03-08T17:23:28;9.20;80.60
11107;DHT22;5607;48.302;14.294;2024-03-08T17:26:14;9.10;84.50
11107;DHT22;5607;48.302;14.294;2024-03-08T17:29:02;9.00;86.20
11107;DHT22;5607;48.302;14.294;2024-03-08T17:31:49;9.00;99.90
11107;DHT22;5607;48.302;14.294;2024-03-08T17:34:35;8.90;98.70
11107;DHT22;5607;48.302;14.294;2024-03-08T17:37:23;8.90;87.70
11107;DHT22;5607;48.302;14.294;2024-03-08T17:40:10;8.80;70.60
11107;DHT22;5607;48.302;14.294;2024-03-08T17:42:58;8.80;90.70
11107;DHT22;5607;48.302;14.294;2024-03-08T17:45:50;8.70;93.80
11107;DHT22;5607;48.302;14.294;2024-03-08T17:48:39;8.70;88.80
11107;DHT22;5607;48.302;14.294;2024-03-08T17:51:25;8.70;88.40
11107;DHT22;5607;48.302;14.294;2024-03-08T17:54:14;8.60;99.90
11107;DHT22;5607;48.302;14.294;2024-03-08T17:57:00;8.60;84.40
11107;DHT22;5607;48.302;14.294;2024-03-08T17:59:47;8.50;93.80